Terminal Aerodrome Forecast
Issued by NWS Atlanta, GA

Home | Current Version | Previous Version | Text Only | Print | Product List | Glossary On
Versions: 1 2 3 4 5 6 7 8 9 10 11 12 13 14 15 16 17 18 19 20 21 22 23 24 25 26 27 28 29 30 31 32 33 34 35 36 37 38
209
FTUS42 KFFC 301739
TAFATL
TAF
KATL 301739Z 3018/0124 20012G22KT P6SM -SHRA SCT020 BKN030
      WS020/19040KT
      TEMPO 3018/3021 VRB15G25KT 2SM TSRA BKN012CB
     FM302200 25012G22KT 5SM -SHRA SCT009 OVC025
     FM010100 29008KT P6SM SCT050 SCT080
     FM011000 31010KT P6SM SKC
     FM011600 31014KT P6SM SKC=

USA.gov is the U.S. government's official web portal to all federal, state and local government web resources and services.